Time;durP1;ratioP1;P1;durP2;ratioP2;P2;SDS_P1;SDS_P2;PMS_P1;PMS_P2;Temp;Humidity;BMP_temperature;BMP_pressure;BME280_temperature;BME280_humidity;BME280_pressure;Samples;Min_cycle;Max_cycle;Signal;HPM_P1;HPM_P2
2023/12/27 00:01:40;;;;;;;61.45;55.08;;;;;;;;;;4131999;28;20096;-60
2023/12/27 00:03:41;;;;;;;61.97;56.03;;;;;;;;;;4132013;28;20427;-60
2023/12/27 00:05:43;;;;;;;62.55;56.83;;;;;;;;;;4132182;28;20034;-59
2023/12/27 00:07:45;;;;;;;59.65;53.95;;;;;;;;;;4132437;28;20044;-59
2023/12/27 00:09:46;;;;;;;57.00;51.63;;;;;;;;;;4146648;28;20383;-60
2023/12/27 00:11:48;;;;;;;64.30;58.00;;;;;;;;;;4132181;28;20034;-59
2023/12/27 00:13:49;;;;;;;68.67;61.30;;;;;;;;;;4132177;28;20057;-61
2023/12/27 00:15:51;;;;;;;69.25;62.22;;;;;;;;;;4132264;28;20042;-61
2023/12/27 00:17:53;;;;;;;62.67;56.63;;;;;;;;;;4114829;28;20039;-59
2023/12/27 00:19:55;;;;;;;56.75;50.95;;;;;;;;;;4128153;28;20043;-59
2023/12/27 00:21:56;;;;;;;52.85;48.35;;;;;;;;;;4127848;28;20042;-59
2023/12/27 00:23:58;;;;;;;50.10;46.00;;;;;;;;;;4132379;28;20077;-59
2023/12/27 00:25:59;;;;;;;51.70;47.40;;;;;;;;;;4132290;28;20093;-59
2023/12/27 00:28:01;;;;;;;55.65;50.35;;;;;;;;;;4132232;28;20051;-60
2023/12/27 00:30:03;;;;;;;51.03;46.17;;;;;;;;;;4131967;28;20092;-59
2023/12/27 00:32:09;;;;;;;45.20;41.58;;;;;;;;;;4132202;28;20080;-60
2023/12/27 00:34:11;;;;;;;47.13;43.30;;;;;;;;;;4131993;28;20137;-60
2023/12/27 00:36:13;;;;;;;44.00;40.65;;;;;;;;;;4131961;28;20074;-60
2023/12/27 00:38:15;;;;;;;40.22;37.60;;;;;;;;;;4114630;28;20519;-60
2023/12/27 00:40:16;;;;;;;37.85;35.45;;;;;;;;;;4132209;28;20038;-62
2023/12/27 00:42:18;;;;;;;36.08;33.88;;;;;;;;;;4132443;28;20045;-62
2023/12/27 00:44:19;;;;;;;39.63;37.37;;;;;;;;;;4132155;28;20077;-61
2023/12/27 00:46:21;;;;;;;36.80;34.53;;;;;;;;;;4131752;28;20096;-62
2023/12/27 00:48:23;;;;;;;39.65;36.75;;;;;;;;;;4131825;28;20097;-62
2023/12/27 00:50:24;;;;;;;39.65;36.92;;;;;;;;;;4131699;28;20053;-62
2023/12/27 00:52:26;;;;;;;35.63;33.40;;;;;;;;;;4137792;28;20079;-62
2023/12/27 00:54:28;;;;;;;35.72;33.28;;;;;;;;;;4135693;28;20053;-62
2023/12/27 00:56:29;;;;;;;35.42;33.53;;;;;;;;;;4131656;28;20081;-61
2023/12/27 00:58:31;;;;;;;32.38;30.83;;;;;;;;;;4114186;28;20511;-62
2023/12/27 01:00:32;;;;;;;37.00;34.13;;;;;;;;;;4131703;28;20058;-60
2023/12/27 01:02:35;;;;;;;36.20;34.03;;;;;;;;;;4131115;28;20093;-59
2023/12/27 01:04:36;;;;;;;34.05;31.98;;;;;;;;;;4128405;28;20050;-59
2023/12/27 01:06:38;;;;;;;37.27;34.23;;;;;;;;;;4117552;28;20034;-60
2023/12/27 01:08:40;;;;;;;34.33;32.70;;;;;;;;;;4129726;28;20294;-60
2023/12/27 01:10:41;;;;;;;36.83;35.03;;;;;;;;;;4120153;28;20043;-60
2023/12/27 01:12:43;;;;;;;36.50;33.73;;;;;;;;;;4121871;28;20093;-60
2023/12/27 01:14:45;;;;;;;32.45;30.58;;;;;;;;;;4121339;28;20290;-60
2023/12/27 01:16:46;;;;;;;31.95;29.52;;;;;;;;;;4107200;28;20039;-59
2023/12/27 01:18:48;;;;;;;34.65;32.65;;;;;;;;;;4119039;28;20038;-60
2023/12/27 01:20:49;;;;;;;33.17;31.10;;;;;;;;;;4127399;28;20498;-59
2023/12/27 01:22:51;;;;;;;31.67;30.00;;;;;;;;;;4117604;28;20670;-60
2023/12/27 01:24:53;;;;;;;33.73;32.03;;;;;;;;;;4130249;28;20125;-61
2023/12/27 01:26:54;;;;;;;32.72;31.02;;;;;;;;;;4113085;28;20313;-59
2023/12/27 01:28:56;;;;;;;31.42;30.25;;;;;;;;;;4117613;28;20038;-60
2023/12/27 01:30:58;;;;;;;32.28;30.38;;;;;;;;;;4127991;28;20078;-59
2023/12/27 01:32:59;;;;;;;33.00;30.88;;;;;;;;;;4119953;28;20074;-60
2023/12/27 01:35:01;;;;;;;31.10;29.80;;;;;;;;;;4125407;28;20058;-60
2023/12/27 01:37:03;;;;;;;34.05;32.15;;;;;;;;;;4122520;28;20057;-60
2023/12/27 01:39:06;;;;;;;32.47;31.13;;;;;;;;;;4122782;28;20067;-60
2023/12/27 01:41:07;;;;;;;31.17;29.67;;;;;;;;;;4124797;28;20490;-60
2023/12/27 01:43:09;;;;;;;34.08;32.05;;;;;;;;;;4120683;28;20117;-60
2023/12/27 01:45:11;;;;;;;33.72;31.92;;;;;;;;;;4127130;28;20406;-60
2023/12/27 01:47:13;;;;;;;32.28;30.35;;;;;;;;;;4118016;28;20475;-60
2023/12/27 01:49:14;;;;;;;41.10;38.40;;;;;;;;;;4129777;28;20101;-60
2023/12/27 01:51:17;;;;;;;40.10;36.30;;;;;;;;;;4116117;28;20058;-62
2023/12/27 01:53:19;;;;;;;;;;;;;;;;;;4131344;28;20793;-61
2023/12/27 01:55:21;;;;;;;37.97;35.75;;;;;;;;;;4126187;28;19929;-62
2023/12/27 01:57:23;;;;;;;39.22;36.60;;;;;;;;;;4126758;28;20058;-62
2023/12/27 01:59:24;;;;;;;38.87;36.47;;;;;;;;;;4102554;28;20075;-61
2023/12/27 02:01:27;;;;;;;37.78;35.38;;;;;;;;;;4124575;28;20293;-60
2023/12/27 02:03:29;;;;;;;36.22;34.17;;;;;;;;;;4121817;28;20105;-59
2023/12/27 02:05:31;;;;;;;35.50;33.45;;;;;;;;;;4131076;28;20121;-59
2023/12/27 02:07:33;;;;;;;36.05;33.83;;;;;;;;;;4131120;28;20084;-60
2023/12/27 02:09:35;;;;;;;33.95;31.98;;;;;;;;;;4132347;28;20069;-60
2023/12/27 02:11:37;;;;;;;37.05;34.78;;;;;;;;;;4130830;28;20410;-60
2023/12/27 02:13:42;;;;;;;34.30;32.42;;;;;;;;;;4131082;28;20483;-60
2023/12/27 02:15:43;;;;;;;35.20;33.08;;;;;;;;;;4131209;28;20069;-59
2023/12/27 02:17:45;;;;;;;35.05;32.85;;;;;;;;;;4115467;28;20082;-59
2023/12/27 02:19:47;;;;;;;35.38;33.17;;;;;;;;;;4133967;28;20152;-60
2023/12/27 02:21:49;;;;;;;36.90;34.83;;;;;;;;;;4133985;28;20066;-59
2023/12/27 02:23:52;;;;;;;34.88;32.60;;;;;;;;;;4133076;28;20507;-60
2023/12/27 02:25:54;;;;;;;33.83;32.22;;;;;;;;;;4124749;28;20398;-60
2023/12/27 02:27:56;;;;;;;35.42;32.90;;;;;;;;;;4134151;28;20046;-59
2023/12/27 02:29:58;;;;;;;34.38;32.40;;;;;;;;;;4133809;28;20545;-60
2023/12/27 02:32:00;;;;;;;35.87;33.33;;;;;;;;;;4133926;28;20055;-60
2023/12/27 02:34:01;;;;;;;35.38;33.13;;;;;;;;;;4133751;28;20109;-59
2023/12/27 02:36:03;;;;;;;34.42;32.55;;;;;;;;;;4133799;28;20074;-59
2023/12/27 02:38:05;;;;;;;34.30;31.77;;;;;;;;;;4133740;28;20035;-59
2023/12/27 02:40:07;;;;;;;36.00;34.20;;;;;;;;;;4133653;28;20050;-60
2023/12/27 02:42:09;;;;;;;34.67;32.55;;;;;;;;;;4133621;28;20121;-59
2023/12/27 02:44:11;;;;;;;32.13;30.48;;;;;;;;;;4133662;28;20134;-60
2023/12/27 02:46:12;;;;;;;33.28;31.38;;;;;;;;;;4133683;28;20042;-59
2023/12/27 02:48:14;;;;;;;34.70;33.03;;;;;;;;;;4133631;28;20034;-60
2023/12/27 02:50:16;;;;;;;33.65;31.42;;;;;;;;;;4133789;28;20043;-59
2023/12/27 02:52:17;;;;;;;31.38;29.85;;;;;;;;;;4138447;28;20125;-60
2023/12/27 02:54:19;;;;;;;34.70;32.97;;;;;;;;;;4140676;28;20035;-59
2023/12/27 02:56:21;;;;;;;32.87;31.27;;;;;;;;;;4133766;28;20038;-59
2023/12/27 02:58:22;;;;;;;34.27;32.53;;;;;;;;;;4133325;28;20045;-60
2023/12/27 03:00:24;;;;;;;31.85;30.42;;;;;;;;;;4133378;28;20293;-59
2023/12/27 03:02:26;;;;;;;35.25;33.30;;;;;;;;;;4133113;28;20034;-59
2023/12/27 03:04:27;;;;;;;33.58;32.00;;;;;;;;;;4132353;28;20046;-59
2023/12/27 03:06:31;;;;;;;37.40;35.05;;;;;;;;;;4117093;28;20038;-60
2023/12/27 03:08:35;;;;;;;36.03;34.08;;;;;;;;;;4134078;28;20580;-60
2023/12/27 03:10:37;;;;;;;35.65;33.55;;;;;;;;;;4131551;28;20663;-60
2023/12/27 03:12:38;;;;;;;32.80;31.25;;;;;;;;;;4131970;28;20554;-62
2023/12/27 03:14:40;;;;;;;33.10;31.50;;;;;;;;;;4131704;28;20104;-62
2023/12/27 03:16:41;;;;;;;33.63;32.05;;;;;;;;;;4131863;28;20514;-62
2023/12/27 03:18:43;;;;;;;33.53;31.27;;;;;;;;;;4131689;28;20038;-62
2023/12/27 03:20:45;;;;;;;32.10;30.67;;;;;;;;;;4131605;28;20038;-62
2023/12/27 03:22:46;;;;;;;32.30;30.60;;;;;;;;;;4132879;28;20517;-62
2023/12/27 03:24:48;;;;;;;30.10;28.83;;;;;;;;;;4128427;28;20042;-62
2023/12/27 03:26:50;;;;;;;32.80;31.45;;;;;;;;;;4133101;28;20092;-62
2023/12/27 03:28:51;;;;;;;32.40;30.57;;;;;;;;;;4132289;28;20053;-61
2023/12/27 03:30:53;;;;;;;30.90;29.20;;;;;;;;;;4132838;28;20038;-62
2023/12/27 03:32:54;;;;;;;31.50;30.17;;;;;;;;;;4133030;28;20125;-62
2023/12/27 03:34:56;;;;;;;32.13;30.10;;;;;;;;;;4132775;28;20081;-62
2023/12/27 03:36:58;;;;;;;32.65;31.25;;;;;;;;;;4115584;28;20298;-62
2023/12/27 03:38:59;;;;;;;32.77;31.07;;;;;;;;;;4132896;28;20046;-62
2023/12/27 03:41:02;;;;;;;32.63;31.23;;;;;;;;;;4132733;28;20046;-62
2023/12/27 03:43:04;;;;;;;;;;;;;;;;;;4133183;28;20297;-62
2023/12/27 03:45:05;;;;;;;30.48;29.33;;;;;;;;;;4132648;28;19984;-62
2023/12/27 03:47:07;;;;;;;34.80;33.30;;;;;;;;;;4132564;28;20042;-62
2023/12/27 03:49:09;;;;;;;32.40;30.77;;;;;;;;;;4132613;28;20046;-62
2023/12/27 03:51:11;;;;;;;35.57;33.73;;;;;;;;;;4132468;28;20492;-62
2023/12/27 03:53:13;;;;;;;34.88;32.80;;;;;;;;;;4144852;28;20315;-62
2023/12/27 03:55:14;;;;;;;33.67;31.17;;;;;;;;;;4133302;28;20081;-61
2023/12/27 03:57:16;;;;;;;29.23;27.97;;;;;;;;;;4132493;28;20569;-62
2023/12/27 03:59:17;;;;;;;31.48;29.88;;;;;;;;;;4132631;28;20399;-62
2023/12/27 04:01:20;;;;;;;33.38;31.90;;;;;;;;;;4132137;28;20074;-62
2023/12/27 04:03:22;;;;;;;31.85;30.33;;;;;;;;;;4127059;28;20058;-62
2023/12/27 04:05:24;;;;;;;31.80;30.15;;;;;;;;;;4122669;28;20038;-62
2023/12/27 04:07:26;;;;;;;32.67;31.10;;;;;;;;;;4124877;28;20045;-62
2023/12/27 04:09:27;;;;;;;28.60;27.13;;;;;;;;;;4128551;28;20043;-62
2023/12/27 04:11:29;;;;;;;33.03;31.37;;;;;;;;;;4122338;28;20100;-62
2023/12/27 04:13:31;;;;;;;32.30;30.38;;;;;;;;;;4127335;28;20046;-62
2023/12/27 04:15:32;;;;;;;34.20;32.60;;;;;;;;;;4120017;28;20054;-62
2023/12/27 04:17:34;;;;;;;30.23;28.83;;;;;;;;;;4129732;28;20047;-62
2023/12/27 04:19:36;;;;;;;30.70;29.52;;;;;;;;;;4100162;28;20050;-62
2023/12/27 04:21:37;;;;;;;28.73;27.47;;;;;;;;;;4131260;28;20117;-60
2023/12/27 04:23:39;;;;;;;30.53;29.20;;;;;;;;;;4118304;28;20646;-60
2023/12/27 04:25:41;;;;;;;30.10;28.95;;;;;;;;;;4128901;28;20046;-60
2023/12/27 04:27:43;;;;;;;30.57;28.97;;;;;;;;;;4120432;28;20074;-59
2023/12/27 04:29:44;;;;;;;30.27;29.08;;;;;;;;;;4126361;28;20294;-59
2023/12/27 04:31:46;;;;;;;31.33;30.03;;;;;;;;;;4122698;28;20057;-59
2023/12/27 04:33:48;;;;;;;32.47;31.15;;;;;;;;;;4124213;28;20298;-59
2023/12/27 04:35:49;;;;;;;32.40;31.23;;;;;;;;;;4125168;28;20046;-60
2023/12/27 04:37:51;;;;;;;30.23;28.73;;;;;;;;;;4121508;28;20406;-60
2023/12/27 04:39:52;;;;;;;31.15;29.80;;;;;;;;;;4127335;28;20113;-60
2023/12/27 04:41:54;;;;;;;31.10;29.70;;;;;;;;;;4119243;28;20499;-59
2023/12/27 04:43:56;;;;;;;31.92;30.40;;;;;;;;;;4122971;28;20507;-59
2023/12/27 04:45:58;;;;;;;31.45;30.27;;;;;;;;;;4130817;28;20450;-60
2023/12/27 04:48:01;;;;;;;31.73;30.48;;;;;;;;;;4117375;28;20377;-59
2023/12/27 04:50:04;;;;;;;29.13;28.02;;;;;;;;;;4128983;28;20138;-59
2023/12/27 04:52:06;;;;;;;32.90;31.40;;;;;;;;;;4119779;28;20560;-59
2023/12/27 04:54:07;;;;;;;32.60;30.70;;;;;;;;;;4131903;28;20101;-60
2023/12/27 04:56:09;;;;;;;29.80;28.60;;;;;;;;;;4118419;28;20455;-59
2023/12/27 04:58:11;;;;;;;31.23;29.97;;;;;;;;;;4123270;28;20564;-59
2023/12/27 05:00:12;;;;;;;30.58;29.38;;;;;;;;;;4122768;28;20109;-61
2023/12/27 05:02:14;;;;;;;33.42;31.92;;;;;;;;;;4125520;28;20050;-60
2023/12/27 05:04:16;;;;;;;28.58;27.33;;;;;;;;;;4120286;28;20046;-59
2023/12/27 05:06:18;;;;;;;34.67;32.85;;;;;;;;;;4127879;28;20407;-59
2023/12/27 05:08:19;;;;;;;30.33;29.13;;;;;;;;;;4120937;28;20093;-59
2023/12/27 05:10:21;;;;;;;32.67;31.15;;;;;;;;;;4131451;28;20034;-60
2023/12/27 05:12:23;;;;;;;33.10;31.35;;;;;;;;;;4130504;28;20511;-59
2023/12/27 05:14:24;;;;;;;30.13;28.85;;;;;;;;;;4117606;28;20050;-59
2023/12/27 05:16:26;;;;;;;33.65;31.95;;;;;;;;;;4131500;28;20042;-59
2023/12/27 05:18:27;;;;;;;33.10;31.50;;;;;;;;;;4126875;28;20038;-59
2023/12/27 05:20:29;;;;;;;31.58;30.25;;;;;;;;;;4115576;28;20337;-59
2023/12/27 05:22:34;;;;;;;31.55;29.90;;;;;;;;;;4106685;28;20043;-59
2023/12/27 05:24:35;;;;;;;30.92;29.55;;;;;;;;;;4122532;28;20055;-59
2023/12/27 05:26:37;;;;;;;30.98;29.15;;;;;;;;;;4118190;28;20078;-59
2023/12/27 05:28:40;;;;;;;30.90;29.60;;;;;;;;;;4113517;28;20039;-60
2023/12/27 05:30:42;;;;;;;32.80;31.25;;;;;;;;;;4102145;28;20046;-60
2023/12/27 05:32:43;;;;;;;29.80;28.50;;;;;;;;;;4109447;28;20643;-60
2023/12/27 05:34:45;;;;;;;31.50;30.13;;;;;;;;;;4115950;28;20053;-60
2023/12/27 05:36:47;;;;;;;31.45;30.23;;;;;;;;;;4115930;28;20047;-60
2023/12/27 05:38:48;;;;;;;32.17;30.98;;;;;;;;;;4129299;28;20399;-59
2023/12/27 05:40:50;;;;;;;32.38;30.92;;;;;;;;;;4117822;28;20442;-59
2023/12/27 05:42:51;;;;;;;31.13;29.40;;;;;;;;;;4124570;28;20065;-61
2023/12/27 05:44:53;;;;;;;30.67;29.27;;;;;;;;;;4131235;28;20053;-62
2023/12/27 05:46:55;;;;;;;30.10;28.67;;;;;;;;;;4107694;28;20091;-61
2023/12/27 05:48:57;;;;;;;31.08;29.98;;;;;;;;;;4123079;28;20422;-62
2023/12/27 05:50:59;;;;;;;30.73;29.50;;;;;;;;;;4121855;28;20039;-61
2023/12/27 05:53:00;;;;;;;33.03;31.73;;;;;;;;;;4128176;28;20368;-61
2023/12/27 05:55:02;;;;;;;33.77;32.43;;;;;;;;;;4128885;28;20043;-62
2023/12/27 05:57:04;;;;;;;30.37;29.20;;;;;;;;;;4134418;28;20093;-62
2023/12/27 05:59:06;;;;;;;31.27;29.67;;;;;;;;;;4120407;28;20714;-62
2023/12/27 06:01:09;;;;;;;31.20;29.85;;;;;;;;;;4132999;28;20064;-62
2023/12/27 06:03:11;;;;;;;31.40;29.55;;;;;;;;;;4123227;28;20054;-62
2023/12/27 06:05:13;;;;;;;30.38;29.00;;;;;;;;;;4134588;28;20042;-62
2023/12/27 06:07:14;;;;;;;31.00;29.88;;;;;;;;;;4134361;28;20117;-61
2023/12/27 06:09:16;;;;;;;32.58;30.90;;;;;;;;;;4119169;28;20145;-62
2023/12/27 06:11:18;;;;;;;64.80;48.90;;;;;;;;;;4115855;28;20534;-61
2023/12/27 06:13:20;;;;;;;30.48;29.00;;;;;;;;;;4134173;28;20073;-62
2023/12/27 06:15:22;;;;;;;34.85;32.88;;;;;;;;;;4133928;28;20120;-62
2023/12/27 06:17:23;;;;;;;34.40;32.00;;;;;;;;;;4133992;28;20074;-62
2023/12/27 06:19:25;;;;;;;34.08;31.55;;;;;;;;;;4133970;28;20046;-61
2023/12/27 06:21:27;;;;;;;32.78;30.75;;;;;;;;;;4133815;28;20501;-62
2023/12/27 06:23:29;;;;;;;33.25;31.85;;;;;;;;;;4134157;28;20101;-62
2023/12/27 06:25:31;;;;;;;33.25;31.58;;;;;;;;;;4143924;28;20447;-62
2023/12/27 06:27:32;;;;;;;38.40;35.50;;;;;;;;;;4133930;28;20054;-63
2023/12/27 06:29:34;;;;;;;42.03;39.00;;;;;;;;;;4134225;28;20050;-62
2023/12/27 06:31:36;;;;;;;43.00;39.65;;;;;;;;;;4134083;28;20078;-62
2023/12/27 06:33:37;;;;;;;38.67;35.80;;;;;;;;;;4133898;28;20406;-62
2023/12/27 06:35:39;;;;;;;37.17;34.63;;;;;;;;;;4132590;28;20499;-62
2023/12/27 06:37:41;;;;;;;34.97;32.95;;;;;;;;;;4133838;28;20459;-63
2023/12/27 06:39:44;;;;;;;37.13;34.75;;;;;;;;;;4133339;28;20039;-62
2023/12/27 06:41:45;;;;;;;34.40;32.90;;;;;;;;;;4133739;28;20042;-62
2023/12/27 06:43:47;;;;;;;32.30;30.77;;;;;;;;;;4142633;28;20289;-61
2023/12/27 06:45:49;;;;;;;33.10;31.73;;;;;;;;;;4137916;28;20042;-60
2023/12/27 06:47:51;;;;;;;34.85;33.17;;;;;;;;;;4133619;28;20285;-61
2023/12/27 06:49:52;;;;;;;37.63;35.07;;;;;;;;;;4133575;28;20053;-60
2023/12/27 06:51:54;;;;;;;39.92;37.65;;;;;;;;;;4134941;28;20046;-60
2023/12/27 06:53:56;;;;;;;36.33;34.38;;;;;;;;;;4133553;28;20089;-60
2023/12/27 06:55:57;;;;;;;33.85;32.30;;;;;;;;;;4133818;28;20042;-61
2023/12/27 06:57:59;;;;;;;34.58;33.17;;;;;;;;;;4132427;28;20050;-60
2023/12/27 07:00:01;;;;;;;32.38;30.90;;;;;;;;;;4133156;28;20031;-61
2023/12/27 07:02:07;;;;;;;35.85;33.78;;;;;;;;;;4133233;28;20117;-60
2023/12/27 07:04:09;;;;;;;33.45;31.85;;;;;;;;;;4132042;28;20058;-61
2023/12/27 07:06:11;;;;;;;32.47;30.75;;;;;;;;;;4133518;28;20116;-60
2023/12/27 07:08:13;;;;;;;30.65;29.50;;;;;;;;;;4135515;28;20045;-60
2023/12/27 07:10:15;;;;;;;33.42;31.80;;;;;;;;;;4137628;28;20101;-60
2023/12/27 07:12:16;;;;;;;30.75;29.35;;;;;;;;;;4133396;28;20054;-61
2023/12/27 07:14:19;;;;;;;34.05;32.65;;;;;;;;;;4115985;28;20039;-60
2023/12/27 07:16:21;;;;;;;32.17;30.98;;;;;;;;;;4115834;28;20133;-61
2023/12/27 07:18:22;;;;;;;32.73;31.00;;;;;;;;;;4133203;28;20499;-60
2023/12/27 07:20:24;;;;;;;30.98;29.67;;;;;;;;;;4132918;28;20074;-60
2023/12/27 07:22:26;;;;;;;30.37;29.47;;;;;;;;;;4115781;28;20047;-60
2023/12/27 07:24:30;;;;;;;33.63;31.83;;;;;;;;;;4132994;28;20093;-60
2023/12/27 07:26:32;;;;;;;36.87;34.63;;;;;;;;;;4133222;28;20039;-60
2023/12/27 07:28:34;;;;;;;35.00;33.20;;;;;;;;;;4133120;28;20112;-60
2023/12/27 07:30:35;;;;;;;35.90;33.67;;;;;;;;;;4132808;28;20482;-60
2023/12/27 07:32:38;;;;;;;36.50;34.42;;;;;;;;;;4132770;28;21050;-61
2023/12/27 07:34:41;;;;;;;33.33;31.38;;;;;;;;;;4132950;28;20050;-61
2023/12/27 07:36:43;;;;;;;35.53;33.22;;;;;;;;;;4133149;28;20039;-61
2023/12/27 07:38:44;;;;;;;35.65;33.33;;;;;;;;;;4115825;28;20059;-60
2023/12/27 07:40:46;;;;;;;33.50;32.10;;;;;;;;;;4132716;28;20047;-61
2023/12/27 07:42:48;;;;;;;34.03;32.40;;;;;;;;;;4132761;28;20069;-60
2023/12/27 07:44:50;;;;;;;;;;;;;;;;;;4133148;28;20517;-60
2023/12/27 07:46:55;;;;;;;32.20;30.67;;;;;;;;;;4132713;28;19921;-61
2023/12/27 07:48:56;;;;;;;33.85;31.75;;;;;;;;;;4132752;28;20039;-60
2023/12/27 07:50:58;;;;;;;31.40;29.63;;;;;;;;;;4132818;28;20133;-60
2023/12/27 07:53:00;;;;;;;31.50;29.70;;;;;;;;;;4135063;28;20121;-61
2023/12/27 07:55:03;;;;;;;32.90;31.02;;;;;;;;;;4132912;28;20047;-60
2023/12/27 07:57:05;;;;;;;34.65;32.80;;;;;;;;;;4132640;28;20426;-61
2023/12/27 07:59:07;;;;;;;30.57;29.13;;;;;;;;;;4132486;28;20042;-61
2023/12/27 08:01:09;;;;;;;32.25;30.52;;;;;;;;;;4132187;28;20053;-61
2023/12/27 08:03:11;;;;;;;33.07;31.23;;;;;;;;;;4132339;28;20050;-62
2023/12/27 08:05:13;;;;;;;33.93;31.97;;;;;;;;;;4132357;28;20789;-62
2023/12/27 08:07:14;;;;;;;40.08;36.67;;;;;;;;;;4132086;28;20068;-62
2023/12/27 08:09:18;;;;;;;211.47;140.80;;;;;;;;;;4140176;28;20093;-62
2023/12/27 08:11:21;;;;;;;50.60;45.88;;;;;;;;;;4132170;28;20036;-62
2023/12/27 08:13:22;;;;;;;;;;;;;;;;;;4132741;28;20039;-62
2023/12/27 08:15:23;;;;;;;37.08;34.80;;;;;;;;;;4131980;28;19929;-62
2023/12/27 08:17:26;;;;;;;36.43;34.50;;;;;;;;;;4115282;28;20047;-62
2023/12/27 08:19:28;;;;;;;36.38;34.13;;;;;;;;;;4131959;28;20494;-62
2023/12/27 08:21:30;;;;;;;39.10;35.97;;;;;;;;;;4132101;28;20046;-62
2023/12/27 08:23:32;;;;;;;36.17;34.10;;;;;;;;;;4132068;28;20046;-62
2023/12/27 08:25:34;;;;;;;37.90;35.63;;;;;;;;;;4114841;28;20043;-62
2023/12/27 08:27:36;;;;;;;61.42;53.72;;;;;;;;;;4132140;28;20116;-63
2023/12/27 08:29:38;;;;;;;42.10;38.23;;;;;;;;;;4131834;28;20472;-62
2023/12/27 08:31:41;;;;;;;34.17;31.95;;;;;;;;;;4131963;28;20054;-62
2023/12/27 08:33:48;;;;;;;34.15;32.15;;;;;;;;;;4114824;28;20078;-62
2023/12/27 08:35:50;;;;;;;36.47;33.90;;;;;;;;;;4131908;28;20077;-62
2023/12/27 08:37:52;;;;;;;37.13;34.42;;;;;;;;;;4114746;28;20051;-62
2023/12/27 08:39:53;;;;;;;40.63;37.90;;;;;;;;;;4131875;28;20049;-62
2023/12/27 08:41:55;;;;;;;42.20;39.40;;;;;;;;;;4130722;28;20108;-62
2023/12/27 08:43:57;;;;;;;42.33;38.40;;;;;;;;;;4131036;28;20050;-63
2023/12/27 08:45:58;;;;;;;47.45;42.83;;;;;;;;;;4131868;28;20470;-62
2023/12/27 08:48:00;;;;;;;56.97;51.13;;;;;;;;;;4131892;28;20038;-62
2023/12/27 08:50:02;;;;;;;;;;;;;;;;;;4132101;28;20671;-62
2023/12/27 08:52:06;;;;;;;;;;;;;;;;;;4132412;28;19925;-62
2023/12/27 08:54:07;;;;;;;45.33;41.90;;;;;;;;;;4130600;28;19957;-62
2023/12/27 08:56:09;;;;;;;116.45;83.57;;;;;;;;;;4131340;28;20502;-62
2023/12/27 08:58:12;;;;;;;414.20;273.63;;;;;;;;;;4114103;28;20700;-62
2023/12/27 09:00:14;;;;;;;211.40;142.32;;;;;;;;;;4130995;28;20078;-62
2023/12/27 09:02:15;;;;;;;187.95;130.77;;;;;;;;;;4130259;28;20414;-62
2023/12/27 09:04:19;;;;;;;43.97;40.23;;;;;;;;;;4124014;28;20109;-61
2023/12/27 09:06:25;;;;;;;39.67;36.70;;;;;;;;;;4124631;28;20434;-61
2023/12/27 09:08:27;;;;;;;36.45;34.30;;;;;;;;;;4124532;28;20039;-61
2023/12/27 09:10:29;;;;;;;42.08;39.05;;;;;;;;;;4125172;28;20078;-61
2023/12/27 09:12:30;;;;;;;44.70;41.60;;;;;;;;;;4113855;28;20121;-60
2023/12/27 09:14:32;;;;;;;37.53;35.07;;;;;;;;;;4125337;28;20458;-62
2023/12/27 09:16:34;;;;;;;38.93;36.20;;;;;;;;;;4115130;28;20466;-62
2023/12/27 09:18:36;;;;;;;37.35;34.95;;;;;;;;;;4114800;28;20410;-62
2023/12/27 09:20:38;;;;;;;67.35;60.85;;;;;;;;;;4115630;28;20046;-62
2023/12/27 09:22:40;;;;;;;37.33;35.13;;;;;;;;;;4119301;28;20045;-62
2023/12/27 09:24:41;;;;;;;35.33;33.03;;;;;;;;;;4115304;28;20290;-62
2023/12/27 09:26:46;;;;;;;42.40;39.43;;;;;;;;;;4119538;28;20034;-62
2023/12/27 09:28:48;;;;;;;51.80;47.50;;;;;;;;;;4117311;28;20033;-62
2023/12/27 09:30:50;;;;;;;76.13;65.70;;;;;;;;;;4118102;28;20065;-62
2023/12/27 09:32:51;;;;;;;43.80;39.70;;;;;;;;;;4120158;28;20080;-62
2023/12/27 09:34:53;;;;;;;193.77;110.90;;;;;;;;;;4122247;28;20046;-62
2023/12/27 09:36:55;;;;;;;50.80;45.63;;;;;;;;;;4114608;28;20290;-62
2023/12/27 09:38:56;;;;;;;41.90;38.80;;;;;;;;;;4114897;28;20034;-63
2023/12/27 09:40:58;;;;;;;147.17;107.03;;;;;;;;;;4114615;28;20066;-62
2023/12/27 09:43:01;;;;;;;130.57;98.13;;;;;;;;;;4126616;28;20368;-62
2023/12/27 09:45:05;;;;;;;35.63;33.38;;;;;;;;;;4125810;28;20054;-62
2023/12/27 09:47:10;;;;;;;32.28;30.58;;;;;;;;;;4109217;28;20565;-62
2023/12/27 09:49:12;;;;;;;35.15;33.00;;;;;;;;;;4115424;28;20502;-62
2023/12/27 09:51:22;;;;;;;61.22;55.00;;;;;;;;;;4114403;28;20133;-62
2023/12/27 09:53:24;;;;;;;42.97;39.17;;;;;;;;;;4115717;28;20051;-62
2023/12/27 09:55:26;;;;;;;264.70;115.17;;;;;;;;;;4118869;28;20093;-62
2023/12/27 09:57:28;;;;;;;151.10;73.47;;;;;;;;;;4118922;28;20035;-62
2023/12/27 09:59:35;;;;;;;257.42;121.78;;;;;;;;;;4113861;28;20135;-62
2023/12/27 10:01:41;;;;;;;243.68;112.75;;;;;;;;;;4128983;28;20169;-63
2023/12/27 10:03:47;;;;;;;323.73;144.25;;;;;;;;;;4109815;28;20070;-62
2023/12/27 10:05:58;;;;;;;339.23;168.10;;;;;;;;;;4131024;28;20065;-62
2023/12/27 10:08:01;;;;;;;171.65;97.88;;;;;;;;;;4131506;28;20129;-62
2023/12/27 10:10:04;;;;;;;91.47;67.65;;;;;;;;;;4140016;28;20057;-62
2023/12/27 10:12:21;;;;;;;181.18;91.10;;;;;;;;;;4125737;28;20042;-62
2023/12/27 10:14:24;;;;;;;81.18;52.38;;;;;;;;;;4131272;28;20073;-62
2023/12/27 10:16:26;;;;;;;214.95;98.80;;;;;;;;;;4131007;28;20042;-62
2023/12/27 10:18:28;;;;;;;600.50;328.90;;;;;;;;;;4130967;28;20065;-62
2023/12/27 10:20:36;;;;;;;646.88;374.02;;;;;;;;;;4130778;28;20070;-62
2023/12/27 10:22:38;;;;;;;102.03;69.68;;;;;;;;;;4129978;28;20042;-62
2023/12/27 10:24:39;;;;;;;270.67;123.60;;;;;;;;;;4130439;28;20047;-62
2023/12/27 10:26:41;;;;;;;829.83;450.45;;;;;;;;;;4130824;28;20051;-63
2023/12/27 10:28:44;;;;;;;407.87;223.03;;;;;;;;;;4130875;28;20491;-62
2023/12/27 10:30:46;;;;;;;511.45;246.73;;;;;;;;;;4113728;28;20070;-62
2023/12/27 10:33:00;;;;;;;463.88;243.30;;;;;;;;;;4130822;28;20042;-62
2023/12/27 10:35:03;;;;;;;645.42;335.55;;;;;;;;;;4131039;28;20046;-62
2023/12/27 10:37:11;;;;;;;515.40;274.00;;;;;;;;;;4130917;28;20509;-62
2023/12/27 10:39:13;;;;;;;514.38;305.58;;;;;;;;;;4133059;28;20049;-62
2023/12/27 10:41:17;;;;;;;173.15;102.70;;;;;;;;;;4133645;28;20034;-62
2023/12/27 10:43:23;;;;;;;43.97;39.57;;;;;;;;;;4133658;28;20042;-62
2023/12/27 10:45:25;;;;;;;37.40;35.10;;;;;;;;;;4128601;28;20041;-62
2023/12/27 10:47:29;;;;;;;58.95;47.67;;;;;;;;;;4132767;28;20089;-62
2023/12/27 10:49:33;;;;;;;294.95;138.63;;;;;;;;;;4124305;28;20065;-62
2023/12/27 10:51:38;;;;;;;40.45;36.97;;;;;;;;;;4133531;28;20046;-62
2023/12/27 10:53:43;;;;;;;568.95;290.77;;;;;;;;;;4138516;28;20042;-62
2023/12/27 10:55:47;;;;;;;285.63;148.95;;;;;;;;;;4133537;28;20050;-62
2023/12/27 10:57:55;;;;;;;373.67;191.98;;;;;;;;;;4133571;28;20046;-62
2023/12/27 10:59:58;;;;;;;320.58;183.63;;;;;;;;;;4122715;28;20047;-62
2023/12/27 11:02:00;;;;;;;69.45;55.80;;;;;;;;;;4128790;28;20039;-62
2023/12/27 11:04:06;;;;;;;41.53;37.60;;;;;;;;;;4123745;28;20461;-62
2023/12/27 11:06:07;;;;;;;35.38;32.38;;;;;;;;;;4105771;28;20123;-62
2023/12/27 11:08:11;;;;;;;33.63;31.77;;;;;;;;;;4121162;28;20121;-62
2023/12/27 11:10:15;;;;;;;33.75;31.80;;;;;;;;;;4116671;28;20230;-63
2023/12/27 11:12:19;;;;;;;33.55;31.75;;;;;;;;;;4112234;28;20098;-62
2023/12/27 11:14:24;;;;;;;31.30;30.00;;;;;;;;;;4127074;28;20042;-62
2023/12/27 11:16:27;;;;;;;32.78;31.17;;;;;;;;;;4116332;28;20438;-63
2023/12/27 11:18:30;;;;;;;35.45;33.42;;;;;;;;;;4112356;28;20035;-62
2023/12/27 11:20:32;;;;;;;38.13;35.05;;;;;;;;;;4131977;28;20089;-62
2023/12/27 11:22:34;;;;;;;40.33;36.88;;;;;;;;;;4131986;28;20054;-63
2023/12/27 11:24:38;;;;;;;388.60;133.95;;;;;;;;;;4119207;28;20053;-61
2023/12/27 11:26:39;;;;;;;35.72;32.85;;;;;;;;;;4129849;28;20391;-62
2023/12/27 11:28:42;;;;;;;359.80;197.10;;;;;;;;;;4120318;28;20039;-61
2023/12/27 11:30:45;;;;;;;;;;;;;;;;;;4111442;28;20411;-61
2023/12/27 11:32:47;;;;;;;36.42;33.65;;;;;;;;;;4117966;28;19921;-61
2023/12/27 11:34:49;;;;;;;42.00;38.03;;;;;;;;;;4128031;28;20043;-62
2023/12/27 11:36:51;;;;;;;116.38;74.05;;;;;;;;;;4116865;28;20309;-62
2023/12/27 11:38:53;;;;;;;37.63;34.35;;;;;;;;;;4109550;28;20427;-62
2023/12/27 11:40:56;;;;;;;49.38;37.03;;;;;;;;;;4110634;28;20035;-62
2023/12/27 11:42:57;;;;;;;28.80;27.08;;;;;;;;;;4110390;28;20066;-63
2023/12/27 11:44:59;;;;;;;26.90;25.27;;;;;;;;;;4114588;28;20043;-62
2023/12/27 11:47:01;;;;;;;35.33;30.83;;;;;;;;;;4117945;28;20035;-63
2023/12/27 11:49:03;;;;;;;77.55;41.13;;;;;;;;;;4117596;28;20357;-62
2023/12/27 11:51:24;;;;;;;55.13;37.67;;;;;;;;;;4128412;28;20058;-62